createdAt,value
2022-09-15T00:00:52.462Z,208.90
2022-09-15T00:03:44.386Z,143.60
2022-09-15T00:06:29.233Z,82.10
2022-09-15T00:09:10.189Z,95.50
2022-09-15T00:11:55.761Z,114.50
2022-09-15T00:14:33.461Z,70.60
2022-09-15T00:17:15.848Z,23.20
2022-09-15T00:19:51.898Z,79.70
2022-09-15T00:22:36.385Z,70.40
2022-09-15T00:25:22.616Z,103.00
2022-09-15T00:28:07.775Z,130.50
2022-09-15T00:31:10.296Z,93.10
2022-09-15T00:33:57.278Z,80.30
2022-09-15T00:36:41.481Z,14.00
2022-09-15T00:39:36.090Z,57.70
2022-09-15T00:43:00.277Z,40.60
2022-09-15T00:46:09.925Z,40.00
2022-09-15T00:49:07.250Z,33.90
2022-09-15T00:52:12.874Z,38.70
2022-09-15T00:54:50.958Z,30.90
2022-09-15T00:57:35.517Z,12.40
2022-09-15T01:00:18.654Z,12.80
2022-09-15T01:03:02.077Z,18.60
2022-09-15T01:05:53.059Z,9.40
2022-09-15T01:08:44.898Z,9.40
2022-09-15T01:11:17.481Z,9.40
2022-09-15T01:13:53.010Z,11.00
2022-09-15T01:17:04.106Z,8.70
2022-09-15T01:20:31.831Z,8.30
2022-09-15T01:23:37.256Z,9.30
2022-09-15T01:26:33.855Z,8.90
2022-09-15T01:30:05.774Z,8.80
2022-09-15T01:33:07.145Z,9.30
2022-09-15T01:35:59.917Z,10.00
2022-09-15T01:38:48.877Z,13.60
2022-09-15T01:41:28.137Z,18.40
2022-09-15T01:44:12.139Z,11.60
2022-09-15T01:46:59.287Z,12.20
2022-09-15T01:49:47.677Z,30.80
2022-09-15T01:52:22.634Z,22.50
2022-09-15T01:55:02.386Z,18.30
2022-09-15T01:57:40.068Z,13.40
2022-09-15T02:00:17.585Z,55.20
2022-09-15T02:02:55.023Z,40.20
2022-09-15T02:05:33.632Z,20.40
2022-09-15T02:08:15.305Z,17.70
2022-09-15T02:10:59.530Z,17.90
2022-09-15T02:13:42.053Z,42.70
2022-09-15T02:16:20.342Z,10.50
2022-09-15T02:19:23.608Z,8.60
2022-09-15T02:22:06.718Z,7.70
2022-09-15T02:24:59.579Z,9.10
2022-09-15T02:27:39.205Z,17.10
2022-09-15T02:30:15.848Z,20.40
2022-09-15T02:32:54.390Z,27.20
2022-09-15T02:35:29.573Z,14.60
2022-09-15T02:38:02.803Z,132.30
2022-09-15T02:40:35.213Z,81.50
2022-09-15T02:43:14.355Z,247.00
2022-09-15T02:45:49.828Z,115.90
2022-09-15T02:48:21.929Z,32.30
2022-09-15T02:50:54.194Z,23.60
2022-09-15T02:53:29.711Z,16.40
2022-09-15T02:56:02.161Z,26.30
2022-09-15T02:58:34.189Z,13.30
2022-09-15T03:01:10.508Z,11.50
2022-09-15T03:03:43.541Z,11.20
2022-09-15T03:06:21.181Z,12.20
2022-09-15T03:08:56.672Z,9.10
2022-09-15T03:11:41.633Z,7.30
2022-09-15T03:14:17.867Z,10.30
2022-09-15T03:16:52.283Z,10.60
2022-09-15T03:19:24.354Z,9.20
2022-09-15T03:21:56.378Z,11.80
2022-09-15T03:24:28.507Z,10.10
2022-09-15T03:27:00.709Z,10.00
2022-09-15T03:29:33.887Z,12.00
2022-09-15T03:32:08.494Z,9.50
2022-09-15T03:34:40.495Z,9.40
2022-09-15T03:37:12.826Z,12.00
2022-09-15T03:39:44.912Z,10.20
2022-09-15T03:42:16.882Z,13.20
2022-09-15T03:44:58.294Z,13.70
2022-09-15T03:47:35.515Z,13.60
2022-09-15T03:50:08.911Z,12.50
2022-09-15T03:53:05.142Z,11.50
2022-09-15T03:55:57.510Z,11.10
2022-09-15T03:58:43.436Z,9.50
2022-09-15T04:01:28.022Z,14.00
2022-09-15T04:04:12.697Z,10.40
2022-09-15T04:07:00.388Z,10.30
2022-09-15T04:09:35.822Z,13.70
2022-09-15T04:12:20.915Z,13.70
2022-09-15T04:15:05.202Z,12.40
2022-09-15T04:18:35.999Z,11.60
2022-09-15T04:20:44.981Z,11.10
2022-09-15T04:23:23.552Z,12.40
2022-09-15T04:26:08.073Z,12.00
2022-09-15T04:28:41.075Z,9.50
2022-09-15T04:31:16.627Z,11.00
2022-09-15T04:33:55.437Z,8.60
2022-09-15T04:36:29.383Z,9.60
2022-09-15T04:39:01.512Z,10.00
2022-09-15T04:41:36.859Z,8.50
2022-09-15T04:44:09.056Z,8.00
2022-09-15T04:46:44.589Z,8.60
2022-09-15T04:50:00.939Z,11.00
2022-09-15T04:52:47.038Z,12.90
2022-09-15T04:55:21.400Z,15.10
2022-09-15T04:57:57.744Z,14.40
2022-09-15T05:00:33.645Z,12.90
2022-09-15T05:03:08.015Z,14.10
2022-09-15T05:05:46.535Z,13.70
2022-09-15T05:08:27.626Z,11.50
2022-09-15T05:11:12.313Z,11.40
2022-09-15T05:17:28.273Z,15.50
2022-09-15T05:20:33.188Z,12.90
2022-09-15T05:23:53.850Z,11.10
2022-09-15T05:26:59.740Z,10.80
2022-09-15T05:29:31.804Z,9.10
2022-09-15T05:32:04.043Z,10.60
2022-09-15T05:34:36.266Z,9.90
2022-09-15T05:37:23.856Z,14.40
2022-09-15T05:40:12.373Z,12.90
2022-09-15T05:43:47.242Z,12.80
2022-09-15T05:46:03.333Z,11.70
2022-09-15T05:48:36.376Z,11.80
2022-09-15T05:51:09.085Z,10.30
2022-09-15T05:53:53.220Z,9.70
2022-09-15T05:57:00.320Z,8.70
2022-09-15T06:00:36.770Z,10.70
2022-09-15T06:13:08.184Z,9.80
2022-09-15T06:18:47.472Z,6.70
2022-09-15T06:21:25.434Z,6.80
2022-09-15T06:24:05.597Z,6.90
2022-09-15T06:26:49.365Z,6.20
2022-09-15T06:29:49.008Z,6.10
2022-09-15T06:32:21.202Z,6.50
2022-09-15T06:34:59.900Z,7.20
2022-09-15T06:37:36.434Z,7.30
2022-09-15T06:40:23.643Z,7.40
2022-09-15T06:43:01.781Z,7.90
2022-09-15T06:45:33.959Z,6.80
2022-09-15T06:48:24.021Z,7.90
2022-09-15T06:50:59.795Z,6.60
2022-09-15T06:53:33.073Z,5.90
2022-09-15T06:56:10.679Z,6.00
2022-09-15T07:01:24.450Z,6.90
2022-09-15T07:03:57.709Z,6.70
2022-09-15T07:06:36.036Z,6.70
2022-09-15T07:09:09.544Z,5.50
2022-09-15T07:11:41.920Z,5.70
2022-09-15T07:14:17.415Z,5.40
2022-09-15T07:16:52.315Z,5.00
2022-09-15T07:19:24.625Z,5.50
2022-09-15T07:21:56.607Z,4.60
2022-09-15T07:24:28.887Z,5.30
2022-09-15T07:27:01.102Z,4.70
2022-09-15T07:29:37.800Z,5.30
2022-09-15T07:32:11.255Z,5.10
2022-09-15T07:34:46.010Z,4.10
2022-09-15T07:37:25.384Z,4.50
2022-09-15T07:39:57.566Z,3.80
2022-09-15T07:42:35.428Z,4.20
2022-09-15T07:45:16.569Z,4.60
2022-09-15T07:47:48.997Z,4.10
2022-09-15T07:50:21.310Z,3.50
2022-09-15T07:52:56.124Z,4.20
2022-09-15T07:55:28.425Z,3.80
2022-09-15T07:58:05.036Z,3.30
2022-09-15T08:00:37.996Z,2.80
2022-09-15T08:03:14.473Z,3.10
2022-09-15T08:05:50.949Z,3.50
2022-09-15T08:08:29.026Z,3.00
2022-09-15T08:11:01.324Z,3.20
2022-09-15T08:13:33.481Z,2.80
2022-09-15T08:16:16.488Z,2.70
2022-09-15T08:18:54.072Z,2.30
2022-09-15T08:21:29.424Z,2.90
2022-09-15T08:24:02.487Z,2.70
2022-09-15T08:26:40.574Z,2.30
2022-09-15T08:29:23.088Z,2.50
2022-09-15T08:31:58.838Z,2.50
2022-09-15T08:34:57.958Z,2.10
2022-09-15T08:37:33.286Z,2.30
2022-09-15T08:40:07.487Z,2.80
2022-09-15T08:42:44.996Z,2.40
2022-09-15T08:45:25.873Z,2.50
2022-09-15T08:48:04.882Z,2.80
2022-09-15T08:50:41.781Z,2.10
2022-09-15T08:53:18.351Z,1.70
2022-09-15T08:56:09.984Z,1.80
2022-09-15T09:03:53.712Z,2.40
2022-09-15T09:03:55.143Z,2.00
2022-09-15T09:06:51.628Z,2.20
2022-09-15T09:10:10.129Z,1.30
2022-09-15T09:19:16.093Z,1.60
2022-09-15T09:24:44.840Z,1.70
2022-09-15T09:25:27.262Z,1.00
2022-09-15T09:50:37.831Z,1.00
2022-09-15T09:53:25.131Z,0.90
2022-09-15T09:56:24.018Z,0.80
2022-09-15T10:03:35.947Z,1.10
2022-09-15T10:06:18.135Z,1.20
2022-09-15T10:08:58.940Z,1.10
2022-09-15T10:11:46.602Z,1.30
2022-09-15T10:14:30.452Z,1.30
2022-09-15T10:17:05.994Z,1.30
2022-09-15T10:19:45.665Z,1.70
2022-09-15T10:25:58.139Z,1.20
2022-09-15T10:28:31.393Z,1.10
2022-09-15T10:31:14.472Z,1.20
2022-09-15T10:33:48.039Z,1.00
2022-09-15T10:36:24.770Z,1.20
2022-09-15T10:39:19.932Z,1.30
2022-09-15T10:42:00.726Z,1.00
2022-09-15T10:44:50.539Z,1.60
2022-09-15T10:47:43.016Z,1.50
2022-09-15T10:50:25.256Z,1.10
2022-09-15T10:53:11.098Z,1.00
2022-09-15T10:55:53.549Z,1.10
2022-09-15T10:58:48.268Z,1.50
2022-09-15T11:02:00.628Z,1.10
2022-09-15T11:04:59.178Z,1.30
2022-09-15T11:10:16.352Z,1.00
2022-09-15T11:13:05.991Z,1.00
2022-09-15T11:16:16.957Z,1.40
2022-09-15T11:23:05.004Z,0.90
2022-09-15T11:26:16.559Z,1.60
2022-09-15T11:29:34.560Z,1.10
2022-09-15T11:32:17.986Z,1.00
2022-09-15T11:34:57.055Z,1.90
2022-09-15T11:37:58.054Z,1.00
2022-09-15T11:40:45.013Z,1.10
2022-09-15T11:43:28.584Z,1.00
2022-09-15T11:46:28.112Z,0.90
2022-09-15T11:49:16.064Z,1.00
2022-09-15T11:52:00.177Z,1.10
2022-09-15T11:54:42.906Z,1.20
2022-09-15T11:57:19.977Z,1.10
2022-09-15T11:59:58.246Z,0.90
2022-09-15T12:02:39.917Z,0.80
2022-09-15T12:05:24.125Z,1.00
2022-09-15T12:08:01.207Z,1.00
2022-09-15T12:11:15.051Z,1.20
2022-09-15T12:13:53.629Z,1.30
2022-09-15T12:16:28.619Z,1.10
2022-09-15T12:19:15.801Z,1.90
2022-09-15T12:21:56.818Z,1.00
2022-09-15T12:24:46.303Z,1.20
2022-09-15T12:27:23.363Z,1.60
2022-09-15T12:29:58.700Z,1.10
2022-09-15T12:32:33.348Z,1.10
2022-09-15T12:35:31.559Z,0.80
2022-09-15T12:38:10.470Z,1.00
2022-09-15T12:40:43.706Z,0.80
2022-09-15T12:43:27.401Z,0.90
2022-09-15T12:46:02.588Z,0.90
2022-09-15T12:48:37.124Z,1.40
2022-09-15T12:51:12.007Z,0.80
2022-09-15T12:53:53.922Z,1.40
2022-09-15T12:56:28.255Z,1.00
2022-09-15T12:59:10.039Z,1.00
2022-09-15T13:01:51.610Z,1.10
2022-09-15T13:04:53.142Z,1.00
2022-09-15T13:07:56.553Z,1.20
2022-09-15T13:10:46.219Z,1.00
2022-09-15T13:13:38.664Z,1.20
2022-09-15T13:16:16.430Z,1.00
2022-09-15T13:18:55.595Z,1.20
2022-09-15T13:21:28.100Z,1.10
2022-09-15T13:24:00.846Z,1.00
2022-09-15T13:26:34.941Z,1.20
2022-09-15T13:29:07.759Z,0.90
2022-09-15T13:31:47.719Z,1.10
2022-09-15T13:35:08.490Z,1.10
2022-09-15T13:38:21.238Z,1.10
2022-09-15T13:41:47.049Z,1.40
2022-09-15T13:44:37.737Z,1.80
2022-09-15T13:47:31.449Z,1.50
2022-09-15T13:50:14.866Z,1.40
2022-09-15T13:53:02.140Z,1.60
2022-09-15T13:55:38.720Z,2.20
2022-09-15T14:01:18.321Z,1.10
2022-09-15T14:03:54.526Z,1.20
2022-09-15T14:06:30.537Z,1.60
2022-09-15T14:09:07.615Z,1.10
2022-09-15T14:11:45.516Z,1.10
2022-09-15T14:14:37.452Z,1.50
2022-09-15T14:17:24.732Z,1.10
2022-09-15T14:19:59.424Z,1.90
2022-09-15T14:22:36.029Z,1.20
2022-09-15T14:25:16.731Z,1.00
2022-09-15T14:27:51.010Z,1.40
2022-09-15T14:30:27.791Z,1.20
2022-09-15T14:33:02.523Z,1.20
2022-09-15T14:35:40.394Z,1.10
2022-09-15T14:38:23.768Z,1.30
2022-09-15T14:40:59.669Z,1.30
2022-09-15T14:43:35.935Z,1.30
2022-09-15T14:46:17.248Z,2.70
2022-09-15T14:48:49.352Z,2.00
2022-09-15T14:51:25.013Z,1.40
2022-09-15T14:54:01.794Z,1.80
2022-09-15T14:56:36.836Z,1.70
2022-09-15T14:59:15.015Z,1.90
2022-09-15T15:01:59.984Z,1.50
2022-09-15T15:04:42.451Z,2.10
2022-09-15T15:07:22.768Z,1.60
2022-09-15T15:09:59.744Z,1.80
2022-09-15T15:12:36.274Z,1.90
2022-09-15T15:15:11.976Z,1.10
2022-09-15T15:17:48.101Z,1.20
2022-09-15T15:20:27.032Z,1.30
2022-09-15T15:23:18.116Z,1.30
2022-09-15T15:26:21.180Z,1.50
2022-09-15T15:28:54.550Z,1.20
2022-09-15T15:31:28.803Z,1.50
2022-09-15T15:34:07.502Z,2.00
2022-09-15T15:36:39.977Z,1.50
2022-09-15T15:39:27.146Z,1.50
2022-09-15T15:42:06.276Z,1.90
2022-09-15T15:44:38.504Z,1.60
2022-09-15T15:47:31.202Z,1.40
2022-09-15T15:50:16.225Z,1.50
2022-09-15T15:52:50.126Z,1.50
2022-09-15T15:55:24.502Z,1.90
2022-09-15T15:57:57.969Z,1.40
2022-09-15T16:00:35.531Z,1.40
2022-09-15T16:03:09.520Z,4.40
2022-09-15T16:05:45.221Z,4.10
2022-09-15T16:08:28.335Z,3.20
2022-09-15T16:11:04.964Z,1.70
2022-09-15T16:13:43.289Z,4.00
2022-09-15T16:16:20.901Z,2.00
2022-09-15T16:18:53.710Z,7.10
2022-09-15T16:21:37.049Z,17.30
2022-09-15T16:24:16.493Z,10.00
2022-09-15T16:26:53.590Z,5.20
2022-09-15T16:29:30.104Z,2.60
2022-09-15T16:32:02.433Z,2.30
2022-09-15T16:34:35.937Z,2.10
2022-09-15T16:37:09.565Z,6.50
2022-09-15T16:39:46.104Z,1.90
2022-09-15T16:42:20.583Z,3.30
2022-09-15T16:44:52.724Z,1.90
2022-09-15T16:47:24.785Z,1.70
2022-09-15T16:49:58.507Z,1.90
2022-09-15T16:52:31.473Z,1.50
2022-09-15T16:55:03.718Z,1.80
2022-09-15T16:57:40.603Z,2.70
2022-09-15T17:00:16.454Z,1.50
2022-09-15T17:02:48.615Z,1.50
2022-09-15T17:05:26.513Z,1.60
2022-09-15T17:07:58.812Z,2.90
2022-09-15T17:10:31.468Z,2.90
2022-09-15T17:13:04.686Z,2.90
2022-09-15T17:15:39.976Z,3.30
2022-09-15T17:18:15.671Z,2.80
2022-09-15T17:20:50.008Z,2.20
2022-09-15T17:23:27.735Z,2.20
2022-09-15T17:26:05.876Z,5.70
2022-09-15T17:28:38.558Z,3.80
2022-09-15T17:31:16.310Z,3.60
2022-09-15T17:33:49.831Z,2.40
2022-09-15T17:36:22.583Z,2.70
2022-09-15T17:38:56.934Z,2.50
2022-09-15T17:41:34.143Z,2.10
2022-09-15T17:44:12.096Z,3.10
2022-09-15T17:46:47.370Z,4.10
2022-09-15T17:49:20.553Z,7.00
2022-09-15T17:52:02.496Z,10.80
2022-09-15T17:54:35.462Z,7.30
2022-09-15T17:57:09.771Z,6.00
2022-09-15T17:59:44.553Z,9.90
2022-09-15T18:02:28.224Z,17.30
2022-09-15T18:05:06.554Z,15.70
2022-09-15T18:07:49.415Z,16.40
2022-09-15T18:10:27.941Z,16.30
2022-09-15T18:13:02.127Z,22.20
2022-09-15T18:15:36.374Z,22.90
2022-09-15T18:18:13.308Z,8.70
2022-09-15T18:20:47.973Z,11.90
2022-09-15T18:23:22.478Z,11.90
2022-09-15T18:25:58.628Z,9.30
2022-09-15T18:28:31.012Z,16.70
2022-09-15T18:31:04.397Z,6.10
2022-09-15T18:33:36.589Z,76.00
2022-09-15T18:36:10.101Z,62.20
2022-09-15T18:38:42.376Z,34.30
2022-09-15T18:41:14.639Z,45.40
2022-09-15T18:43:49.253Z,327.70
2022-09-15T18:46:27.757Z,62.30
2022-09-15T18:49:02.974Z,92.90
2022-09-15T18:51:51.159Z,280.50
2022-09-15T18:54:24.881Z,225.70
2022-09-15T18:56:57.601Z,38.70
2022-09-15T18:59:30.089Z,46.30
2022-09-15T19:02:02.379Z,41.00
2022-09-15T19:04:39.890Z,26.90
2022-09-15T19:07:13.646Z,29.70
2022-09-15T19:09:46.262Z,35.70
2022-09-15T19:12:19.015Z,96.00
2022-09-15T19:14:52.841Z,26.30
2022-09-15T19:17:25.270Z,66.70
2022-09-15T19:19:57.550Z,27.00
2022-09-15T19:22:29.819Z,20.20
2022-09-15T19:25:02.049Z,32.00
2022-09-15T19:27:34.603Z,27.90
2022-09-15T19:30:10.256Z,22.50
2022-09-15T19:32:44.155Z,48.70
2022-09-15T19:35:19.220Z,33.50
2022-09-15T19:37:51.757Z,28.10
2022-09-15T19:40:24.809Z,24.70
2022-09-15T19:42:57.084Z,19.50
2022-09-15T19:45:30.104Z,29.90
2022-09-15T19:48:02.360Z,19.20
2022-09-15T19:50:34.486Z,39.70
2022-09-15T19:53:06.555Z,32.90
2022-09-15T19:55:39.958Z,34.30
2022-09-15T19:58:12.118Z,39.00
2022-09-15T20:00:44.387Z,23.80
2022-09-15T20:03:17.097Z,25.20
2022-09-15T20:05:53.726Z,8.00
2022-09-15T20:08:27.251Z,10.80
2022-09-15T20:11:00.093Z,13.60
2022-09-15T20:13:34.538Z,64.40
2022-09-15T20:16:10.835Z,95.50
2022-09-15T20:18:46.874Z,104.90
2022-09-15T20:21:45.759Z,158.70
2022-09-15T20:24:16.720Z,67.00
2022-09-15T20:27:00.752Z,68.60
2022-09-15T20:29:34.874Z,107.40
2022-09-15T20:32:08.447Z,74.80
2022-09-15T20:34:41.470Z,74.50
2022-09-15T20:37:15.319Z,84.10
2022-09-15T20:39:51.587Z,47.00
2022-09-15T20:42:26.353Z,71.20
2022-09-15T20:44:58.940Z,52.30
2022-09-15T20:47:33.693Z,25.10
2022-09-15T20:50:07.987Z,48.50
2022-09-15T20:52:41.634Z,33.20
2022-09-15T20:55:19.498Z,132.80
2022-09-15T20:57:54.830Z,58.80
2022-09-15T21:00:33.647Z,305.00
2022-09-15T21:03:07.612Z,210.60
2022-09-15T21:05:40.372Z,142.60
2022-09-15T21:08:13.789Z,72.90
2022-09-15T21:10:51.809Z,61.70
2022-09-15T21:13:24.685Z,40.90
2022-09-15T21:16:04.383Z,38.70
2022-09-15T21:18:39.412Z,39.00
2022-09-15T21:21:14.746Z,21.30
2022-09-15T21:23:49.201Z,33.30
2022-09-15T21:26:23.500Z,32.40
2022-09-15T21:28:57.978Z,58.60
2022-09-15T21:31:32.912Z,31.60
2022-09-15T21:34:05.608Z,32.50
2022-09-15T21:36:40.180Z,35.90
2022-09-15T21:39:15.178Z,33.20
2022-09-15T21:41:48.847Z,21.50
2022-09-15T21:44:24.749Z,34.40
2022-09-15T21:46:57.658Z,15.90
2022-09-15T21:49:31.514Z,10.70
2022-09-15T21:52:04.522Z,11.10
2022-09-15T21:54:37.449Z,7.10
2022-09-15T21:57:10.299Z,12.90
2022-09-15T21:59:43.778Z,10.30
2022-09-15T22:02:17.599Z,6.50
2022-09-15T22:04:50.328Z,6.10
2022-09-15T22:07:23.099Z,7.50
2022-09-15T22:09:56.424Z,7.90
2022-09-15T22:12:29.106Z,9.20
2022-09-15T22:15:01.680Z,9.10
2022-09-15T22:17:34.506Z,5.70
2022-09-15T22:20:09.526Z,6.80
2022-09-15T22:22:44.457Z,7.20
2022-09-15T22:25:21.767Z,5.80
2022-09-15T22:27:54.753Z,6.20
2022-09-15T22:30:27.418Z,5.90
2022-09-15T22:33:03.085Z,5.00
2022-09-15T22:35:35.745Z,5.60
2022-09-15T22:38:08.192Z,4.40
2022-09-15T22:40:40.770Z,5.60
2022-09-15T22:43:13.435Z,5.50
2022-09-15T22:45:46.494Z,4.60
2022-09-15T22:48:19.096Z,4.50
2022-09-15T22:50:51.792Z,6.90
2022-09-15T22:53:25.478Z,6.70
2022-09-15T22:56:08.690Z,3.70
2022-09-15T22:58:45.319Z,6.00
2022-09-15T23:01:20.846Z,5.70
2022-09-15T23:03:55.884Z,6.90
2022-09-15T23:09:01.191Z,4.60
2022-09-15T23:11:37.446Z,4.60
2022-09-15T23:14:12.998Z,5.20
2022-09-15T23:16:47.167Z,4.40
2022-09-15T23:19:19.891Z,4.90
2022-09-15T23:21:52.440Z,4.10
2022-09-15T23:24:28.232Z,4.50
2022-09-15T23:27:01.882Z,3.60
2022-09-15T23:29:34.140Z,4.50
2022-09-15T23:32:07.205Z,4.30
2022-09-15T23:34:39.366Z,3.70
2022-09-15T23:37:11.502Z,3.10
2022-09-15T23:39:43.688Z,3.00
2022-09-15T23:42:18.927Z,3.60
2022-09-15T23:44:53.137Z,3.50
2022-09-15T23:47:25.393Z,3.60
2022-09-15T23:49:57.513Z,3.40
2022-09-15T23:52:29.548Z,2.90
2022-09-15T23:55:01.770Z,3.00
2022-09-15T23:57:33.864Z,3.60
